createdAt,value
2022-09-06T00:01:15.150Z,17.00
2022-09-06T00:03:42.280Z,17.00
2022-09-06T00:06:15.553Z,17.10
2022-09-06T00:08:46.031Z,17.10
2022-09-06T00:11:15.527Z,17.10
2022-09-06T00:13:43.253Z,17.10
2022-09-06T00:16:18.210Z,17.10
2022-09-06T00:18:46.216Z,17.00
2022-09-06T00:21:31.271Z,17.00
2022-09-06T00:23:58.291Z,16.90
2022-09-06T00:26:25.523Z,16.90
2022-09-06T00:28:52.488Z,16.90
2022-09-06T00:31:26.525Z,16.90
2022-09-06T00:33:54.227Z,16.80
2022-09-06T00:36:23.183Z,16.90
2022-09-06T00:38:50.736Z,16.90
2022-09-06T00:41:18.139Z,16.90
2022-09-06T00:43:45.239Z,16.90
2022-09-06T00:46:23.178Z,17.00
2022-09-06T00:49:02.601Z,17.00
2022-09-06T00:51:35.351Z,16.90
2022-09-06T00:54:09.751Z,17.00
2022-09-06T00:56:44.085Z,17.00
2022-09-06T00:59:11.440Z,16.90
2022-09-06T01:01:38.467Z,16.90
2022-09-06T01:04:06.184Z,16.90
2022-09-06T01:07:14.400Z,17.00
2022-09-06T01:10:39.600Z,17.00
2022-09-06T01:14:01.001Z,17.00
2022-09-06T01:16:52.756Z,17.00
2022-09-06T01:20:17.012Z,17.00
2022-09-06T01:23:14.564Z,17.00
2022-09-06T01:27:12.085Z,16.90
2022-09-06T01:30:05.539Z,16.90
2022-09-06T01:33:00.163Z,16.80
2022-09-06T01:35:48.160Z,16.70
2022-09-06T01:38:17.032Z,16.60
2022-09-06T01:40:44.085Z,16.60
2022-09-06T01:43:29.108Z,16.60
2022-09-06T01:46:49.325Z,16.60
2022-09-06T01:49:35.107Z,16.60
2022-09-06T01:52:59.077Z,16.60
2022-09-06T01:55:49.468Z,16.50
2022-09-06T01:59:06.145Z,16.40
2022-09-06T02:02:10.092Z,16.30
2022-09-06T02:04:58.225Z,16.00
2022-09-06T02:07:33.893Z,15.70
2022-09-06T02:10:19.045Z,15.50
2022-09-06T02:12:54.161Z,15.50
2022-09-06T02:15:29.581Z,15.50
2022-09-06T02:18:29.061Z,15.70
2022-09-06T02:21:02.715Z,15.90
2022-09-06T02:23:40.300Z,16.10
2022-09-06T02:26:23.334Z,16.20
2022-09-06T02:28:50.622Z,16.30
2022-09-06T02:31:31.690Z,16.30
2022-09-06T02:33:59.673Z,16.30
2022-09-06T02:36:27.370Z,16.30
2022-09-06T02:38:54.826Z,16.30
2022-09-06T02:41:24.881Z,16.30
2022-09-06T02:43:51.890Z,16.30
2022-09-06T02:46:18.938Z,16.30
2022-09-06T02:48:46.707Z,16.30
2022-09-06T02:51:13.720Z,16.30
2022-09-06T02:53:41.390Z,16.20
2022-09-06T02:56:08.759Z,16.20
2022-09-06T02:58:35.934Z,16.20
2022-09-06T03:01:02.889Z,16.20
2022-09-06T03:03:29.891Z,16.20
2022-09-06T03:05:57.082Z,16.00
2022-09-06T03:08:26.263Z,15.80
2022-09-06T03:10:56.530Z,15.70
2022-09-06T03:13:24.883Z,15.70
2022-09-06T03:15:56.259Z,15.70
2022-09-06T03:18:30.212Z,15.70
2022-09-06T03:20:58.719Z,15.60
2022-09-06T03:23:29.595Z,15.60
2022-09-06T03:25:57.215Z,15.60
2022-09-06T03:28:24.259Z,15.60
2022-09-06T03:30:52.794Z,15.50
2022-09-06T03:33:21.602Z,15.50
2022-09-06T03:35:59.950Z,15.40
2022-09-06T03:38:29.492Z,15.40
2022-09-06T03:40:57.399Z,15.30
2022-09-06T03:43:26.959Z,15.20
2022-09-06T03:45:57.452Z,15.10
2022-09-06T03:48:29.252Z,15.00
2022-09-06T03:50:59.054Z,14.90
2022-09-06T03:53:28.951Z,14.80
2022-09-06T03:55:58.105Z,14.80
2022-09-06T03:58:31.148Z,15.00
2022-09-06T04:01:05.803Z,15.10
2022-09-06T04:03:34.836Z,15.40
2022-09-06T04:06:02.489Z,15.50
2022-09-06T04:08:30.225Z,15.60
2022-09-06T04:10:59.456Z,15.60
2022-09-06T04:13:29.840Z,15.70
2022-09-06T04:15:57.708Z,15.70
2022-09-06T04:18:25.869Z,15.80
2022-09-06T04:20:56.205Z,15.80
2022-09-06T04:23:27.690Z,15.80
2022-09-06T04:25:58.655Z,15.80
2022-09-06T04:28:27.100Z,15.80
2022-09-06T04:31:03.920Z,15.80
2022-09-06T04:33:35.788Z,15.80
2022-09-06T04:36:08.969Z,15.70
2022-09-06T04:38:42.015Z,15.70
2022-09-06T04:41:17.096Z,15.70
2022-09-06T04:43:44.453Z,15.70
2022-09-06T04:46:26.977Z,15.80
2022-09-06T04:48:56.340Z,15.80
2022-09-06T04:51:25.206Z,15.80
2022-09-06T04:53:52.961Z,15.90
2022-09-06T04:56:23.692Z,15.90
2022-09-06T04:58:54.726Z,16.00
2022-09-06T05:01:22.079Z,16.10
2022-09-06T05:03:49.286Z,16.20
2022-09-06T05:06:23.984Z,16.30
2022-09-06T05:08:51.983Z,16.40
2022-09-06T05:11:19.794Z,16.50
2022-09-06T05:13:47.641Z,16.50
2022-09-06T05:16:14.995Z,16.70
2022-09-06T05:18:42.185Z,16.70
2022-09-06T05:21:09.357Z,16.80
2022-09-06T05:23:36.677Z,16.90
2022-09-06T05:26:03.712Z,16.90
2022-09-06T05:28:30.825Z,17.10
2022-09-06T05:31:29.393Z,17.20
2022-09-06T05:33:57.693Z,17.20
2022-09-06T05:36:28.798Z,17.30
2022-09-06T05:38:58.598Z,17.30
2022-09-06T05:41:27.097Z,17.30
2022-09-06T05:43:54.778Z,17.30
2022-09-06T05:46:21.942Z,17.30
2022-09-06T05:48:55.994Z,17.30
2022-09-06T05:51:22.936Z,17.30
2022-09-06T05:53:50.246Z,17.30
2022-09-06T05:56:18.923Z,17.40
2022-09-06T05:58:45.987Z,17.40
2022-09-06T06:01:30.193Z,17.60
2022-09-06T06:04:05.251Z,17.80
2022-09-06T06:06:34.613Z,18.00
2022-09-06T06:09:01.747Z,18.30
2022-09-06T06:11:30.986Z,18.60
2022-09-06T06:13:58.870Z,19.00
2022-09-06T06:16:25.951Z,19.50
2022-09-06T06:18:53.036Z,19.80
2022-09-06T06:21:27.543Z,20.20
2022-09-06T06:23:59.378Z,20.40
2022-09-06T06:26:30.611Z,20.50
2022-09-06T06:29:01.634Z,20.60
2022-09-06T06:31:32.252Z,20.60
2022-09-06T06:34:03.045Z,20.60
2022-09-06T06:36:33.926Z,20.50
2022-09-06T06:39:05.613Z,20.50
2022-09-06T06:41:34.007Z,20.50
2022-09-06T06:44:05.155Z,20.30
2022-09-06T06:46:36.803Z,20.00
2022-09-06T06:49:05.004Z,19.80
2022-09-06T06:51:40.747Z,19.60
2022-09-06T06:54:07.735Z,19.50
2022-09-06T06:56:40.724Z,19.50
2022-09-06T06:59:08.456Z,19.60
2022-09-06T07:01:37.178Z,19.70
2022-09-06T07:04:07.005Z,19.80
2022-09-06T07:12:29.573Z,19.90
2022-09-06T07:14:56.463Z,19.70
2022-09-06T07:17:23.589Z,19.70
2022-09-06T07:22:39.397Z,19.90
2022-09-06T07:25:08.855Z,19.80
2022-09-06T07:27:51.317Z,19.80
2022-09-06T07:30:20.007Z,19.90
2022-09-06T07:32:47.756Z,19.80
2022-09-06T07:35:15.062Z,19.90
2022-09-06T07:37:42.056Z,20.10
2022-09-06T07:40:10.350Z,20.60
2022-09-06T07:42:37.582Z,21.60
2022-09-06T07:45:05.914Z,22.40
2022-09-06T07:53:14.973Z,23.60
2022-09-06T07:55:44.957Z,23.50
2022-09-06T07:58:11.976Z,23.80
2022-09-06T08:03:45.563Z,23.10
2022-09-06T08:06:13.252Z,23.40
2022-09-06T08:11:32.393Z,24.20
2022-09-06T08:14:02.754Z,24.80
2022-09-06T08:16:32.931Z,25.20
2022-09-06T08:19:04.849Z,25.60
2022-09-06T08:21:33.118Z,25.60
2022-09-06T08:24:05.429Z,25.60
2022-09-06T08:26:36.126Z,25.30
2022-09-06T08:29:07.555Z,25.50
2022-09-06T08:31:42.391Z,25.70
2022-09-06T08:34:12.508Z,26.10
2022-09-06T08:36:39.998Z,26.30
2022-09-06T08:39:10.000Z,25.90
2022-09-06T08:42:05.638Z,26.30
2022-09-06T08:47:24.981Z,26.80
2022-09-06T08:50:03.012Z,27.10
2022-09-06T08:53:16.306Z,27.50
2022-09-06T08:56:04.222Z,28.20
2022-09-06T08:59:04.622Z,28.50
2022-09-06T09:02:02.518Z,28.20
2022-09-06T09:04:34.802Z,27.40
2022-09-06T09:07:49.369Z,26.90
2022-09-06T09:10:28.920Z,27.00
2022-09-06T09:12:56.742Z,27.60
2022-09-06T09:15:24.710Z,28.30
2022-09-06T09:17:53.716Z,29.10
2022-09-06T09:20:22.681Z,29.30
2022-09-06T09:22:49.862Z,29.00
2022-09-06T09:25:24.371Z,28.70
2022-09-06T09:28:00.184Z,28.40
2022-09-06T09:30:52.593Z,28.00
2022-09-06T09:33:41.174Z,28.50
2022-09-06T09:36:14.030Z,28.30
2022-09-06T09:38:46.731Z,27.80
2022-09-06T09:41:33.447Z,28.60
2022-09-06T09:44:17.395Z,29.30
2022-09-06T09:46:45.028Z,29.70
2022-09-06T09:49:29.782Z,30.70
2022-09-06T09:52:14.655Z,30.30
2022-09-06T09:54:46.804Z,30.10
2022-09-06T09:57:21.148Z,30.60
2022-09-06T09:59:57.196Z,31.10
2022-09-06T10:02:40.021Z,31.30
2022-09-06T10:05:12.892Z,31.70
2022-09-06T10:07:51.407Z,30.80
2022-09-06T10:10:45.318Z,29.60
2022-09-06T10:13:29.536Z,30.30
2022-09-06T10:15:59.305Z,31.50
2022-09-06T10:18:43.634Z,32.40
2022-09-06T10:21:22.212Z,32.70
2022-09-06T10:24:31.194Z,33.10
2022-09-06T10:27:03.092Z,34.40
2022-09-06T10:30:01.356Z,35.90
2022-09-06T10:32:45.968Z,35.80
2022-09-06T10:35:30.574Z,35.10
2022-09-06T10:38:32.286Z,35.10
2022-09-06T10:42:08.328Z,35.60
2022-09-06T10:45:11.839Z,36.30
2022-09-06T10:48:13.922Z,37.30
2022-09-06T10:51:00.816Z,37.40
2022-09-06T10:54:08.718Z,37.30
2022-09-06T10:56:58.701Z,37.30
2022-09-06T10:59:46.809Z,36.20
2022-09-06T11:06:05.624Z,36.80
2022-09-06T11:08:59.493Z,37.70
2022-09-06T11:11:45.412Z,37.60
2022-09-06T11:14:15.483Z,38.40
2022-09-06T11:17:28.316Z,38.30
2022-09-06T11:20:11.861Z,38.70
2022-09-06T11:23:24.920Z,37.90
2022-09-06T11:26:29.317Z,37.10
2022-09-06T11:29:04.188Z,36.20
2022-09-06T11:34:38.240Z,34.00
2022-09-06T11:37:22.836Z,34.80
2022-09-06T11:42:55.332Z,37.50
2022-09-06T11:45:43.856Z,37.40
2022-09-06T11:48:26.519Z,37.90
2022-09-06T11:50:59.357Z,38.00
2022-09-06T11:53:59.937Z,38.10
2022-09-06T11:56:40.904Z,38.30
2022-09-06T11:59:17.580Z,38.20
2022-09-06T12:02:03.823Z,37.50
2022-09-06T12:05:14.166Z,37.90
2022-09-06T12:08:33.414Z,39.10
2022-09-06T12:11:06.313Z,39.20
2022-09-06T12:13:47.602Z,37.90
2022-09-06T12:16:18.145Z,38.00
2022-09-06T12:18:48.010Z,37.60
2022-09-06T12:21:41.642Z,37.70
2022-09-06T12:24:33.518Z,38.40
2022-09-06T12:27:17.489Z,39.60
2022-09-06T12:29:58.346Z,40.30
2022-09-06T12:32:37.205Z,40.60
2022-09-06T12:38:17.082Z,39.70
2022-09-06T12:40:52.322Z,39.60
2022-09-06T12:43:20.356Z,39.80
2022-09-06T12:45:52.421Z,40.10
2022-09-06T12:48:35.978Z,40.10
2022-09-06T12:51:20.052Z,40.20
2022-09-06T12:54:25.328Z,40.30
2022-09-06T12:56:53.706Z,40.30
2022-09-06T12:59:27.003Z,39.90
2022-09-06T13:02:12.181Z,40.00
2022-09-06T13:04:51.895Z,40.40
2022-09-06T13:07:24.340Z,40.80
2022-09-06T13:09:56.626Z,39.70
2022-09-06T13:12:50.343Z,39.60
2022-09-06T13:15:21.127Z,38.50
2022-09-06T13:17:48.550Z,36.40
2022-09-06T13:20:26.075Z,34.60
2022-09-06T13:23:06.287Z,33.20
2022-09-06T13:25:33.501Z,32.60
2022-09-06T13:28:02.203Z,33.00
2022-09-06T13:30:42.782Z,33.90
2022-09-06T13:33:26.293Z,34.70
2022-09-06T13:36:24.806Z,34.00
2022-09-06T13:38:52.035Z,34.50
2022-09-06T13:41:27.739Z,36.60
2022-09-06T13:44:27.973Z,36.50
2022-09-06T13:46:55.266Z,38.20
2022-09-06T13:49:23.744Z,37.50
2022-09-06T13:51:54.300Z,36.60
2022-09-06T13:54:22.649Z,37.80
2022-09-06T13:56:50.431Z,39.40
2022-09-06T13:59:18.856Z,37.80
2022-09-06T14:02:08.258Z,35.70
2022-09-06T14:04:36.901Z,34.00
2022-09-06T14:07:05.504Z,32.30
2022-09-06T14:09:33.191Z,32.50
2022-09-06T14:12:00.924Z,32.50
2022-09-06T14:14:27.981Z,31.60
2022-09-06T14:16:55.311Z,30.60
2022-09-06T14:19:23.097Z,29.80
2022-09-06T14:21:50.281Z,29.10
2022-09-06T14:24:17.676Z,28.90
2022-09-06T14:26:44.848Z,28.80
2022-09-06T14:29:11.745Z,28.80
2022-09-06T14:31:39.546Z,28.90
2022-09-06T14:34:06.449Z,30.60
2022-09-06T14:36:34.460Z,33.20
2022-09-06T14:39:03.282Z,34.70
2022-09-06T14:41:30.605Z,36.10
2022-09-06T14:43:59.577Z,37.00
2022-09-06T14:46:29.465Z,37.00
2022-09-06T14:49:08.341Z,36.40
2022-09-06T14:51:38.193Z,36.00
2022-09-06T14:54:12.801Z,37.00
2022-09-06T14:56:44.054Z,38.50
2022-09-06T14:59:12.642Z,39.30
2022-09-06T15:01:41.003Z,39.40
2022-09-06T15:04:10.996Z,39.00
2022-09-06T15:06:44.009Z,38.20
2022-09-06T15:09:11.416Z,37.80
2022-09-06T15:11:52.747Z,37.60
2022-09-06T15:14:27.307Z,38.20
2022-09-06T15:16:59.711Z,37.90
2022-09-06T15:19:29.717Z,37.40
2022-09-06T15:21:57.641Z,37.00
2022-09-06T15:24:25.562Z,35.30
2022-09-06T15:26:52.550Z,33.70
2022-09-06T15:29:20.299Z,33.70
2022-09-06T15:31:50.590Z,34.00
2022-09-06T15:34:20.994Z,34.80
2022-09-06T15:36:48.894Z,34.80
2022-09-06T15:39:16.134Z,35.40
2022-09-06T15:41:43.482Z,35.60
2022-09-06T15:44:15.816Z,36.00
2022-09-06T15:46:51.511Z,36.50
2022-09-06T15:49:32.052Z,36.80
2022-09-06T15:52:02.758Z,36.60
2022-09-06T15:54:49.052Z,36.20
2022-09-06T15:57:17.696Z,36.40
2022-09-06T15:59:45.558Z,34.80
2022-09-06T16:02:14.050Z,34.50
2022-09-06T16:04:41.240Z,34.70
2022-09-06T16:07:09.595Z,35.00
2022-09-06T16:09:36.525Z,35.10
2022-09-06T16:12:04.279Z,35.10
2022-09-06T16:14:31.409Z,35.20
2022-09-06T16:16:58.409Z,33.90
2022-09-06T16:19:26.423Z,32.50
2022-09-06T16:21:53.756Z,31.40
2022-09-06T16:24:21.241Z,30.50
2022-09-06T16:26:48.543Z,30.00
2022-09-06T16:29:18.940Z,30.00
2022-09-06T16:31:46.944Z,29.60
2022-09-06T16:34:15.434Z,29.20
2022-09-06T16:36:42.816Z,29.20
2022-09-06T16:39:10.724Z,28.90
2022-09-06T16:41:44.043Z,28.60
2022-09-06T16:44:18.739Z,28.90
2022-09-06T16:46:50.232Z,29.50
2022-09-06T16:49:19.169Z,30.00
2022-09-06T16:51:49.192Z,30.30
2022-09-06T16:54:18.089Z,30.20
2022-09-06T16:56:45.975Z,30.10
2022-09-06T16:59:15.084Z,30.10
2022-09-06T17:01:42.117Z,29.70
2022-09-06T17:04:10.833Z,29.30
2022-09-06T17:06:47.273Z,29.30
2022-09-06T17:09:21.194Z,29.00
2022-09-06T17:11:51.596Z,28.60
2022-09-06T17:14:18.946Z,28.00
2022-09-06T17:17:04.394Z,27.30
2022-09-06T17:19:36.591Z,26.80
2022-09-06T17:22:05.160Z,26.30
2022-09-06T17:24:32.329Z,25.90
2022-09-06T17:26:59.268Z,25.50
2022-09-06T17:29:26.524Z,25.20
2022-09-06T17:31:54.154Z,24.90
2022-09-06T17:34:21.524Z,24.60
2022-09-06T17:36:48.938Z,24.30
2022-09-06T17:39:21.012Z,24.10
2022-09-06T17:41:53.440Z,23.80
2022-09-06T17:44:26.581Z,23.70
2022-09-06T17:49:43.248Z,23.30
2022-09-06T17:52:11.473Z,23.10
2022-09-06T17:54:38.544Z,22.80
2022-09-06T17:57:05.440Z,22.60
2022-09-06T17:59:35.540Z,22.40
2022-09-06T18:02:05.006Z,22.20
2022-09-06T18:04:32.182Z,22.10
2022-09-06T18:06:59.166Z,22.00
2022-09-06T18:09:26.122Z,22.00
2022-09-06T18:11:53.139Z,21.90
2022-09-06T18:14:20.863Z,21.80
2022-09-06T18:16:52.153Z,21.60
2022-09-06T18:19:19.273Z,21.60
2022-09-06T18:21:48.042Z,21.50
2022-09-06T18:24:15.562Z,21.40
2022-09-06T18:26:43.433Z,21.20
2022-09-06T18:29:14.494Z,21.00
2022-09-06T18:31:43.170Z,20.90
2022-09-06T18:34:12.291Z,20.80
2022-09-06T18:36:40.660Z,20.70
2022-09-06T18:39:08.609Z,20.60
2022-09-06T18:41:54.306Z,20.50
2022-09-06T18:44:22.367Z,20.40
2022-09-06T18:46:49.914Z,20.30
2022-09-06T18:49:17.427Z,20.20
2022-09-06T18:51:45.896Z,20.00
2022-09-06T18:54:14.043Z,19.90
2022-09-06T18:56:44.727Z,19.80
2022-09-06T18:59:13.845Z,19.70
2022-09-06T19:01:40.994Z,19.60
2022-09-06T19:04:09.438Z,19.60
2022-09-06T19:06:39.296Z,19.60
2022-09-06T19:09:12.581Z,19.60
2022-09-06T19:11:45.855Z,19.60
2022-09-06T19:14:14.255Z,19.50
2022-09-06T19:16:42.065Z,19.40
2022-09-06T19:19:11.813Z,19.40
2022-09-06T19:21:42.075Z,19.30
2022-09-06T19:24:12.135Z,19.10
2022-09-06T19:26:44.074Z,19.00
2022-09-06T19:29:19.208Z,18.90
2022-09-06T19:31:47.519Z,18.90
2022-09-06T19:34:15.613Z,18.80
2022-09-06T19:36:44.799Z,18.80
2022-09-06T19:39:16.455Z,18.90
2022-09-06T19:41:46.854Z,18.90
2022-09-06T19:44:17.172Z,18.80
2022-09-06T19:46:46.784Z,18.90
2022-09-06T19:49:23.091Z,18.80
2022-09-06T19:51:51.124Z,18.80
2022-09-06T19:54:19.924Z,18.70
2022-09-06T19:56:47.738Z,18.70
2022-09-06T19:59:16.761Z,18.70
2022-09-06T20:01:47.279Z,18.60
2022-09-06T20:04:15.629Z,18.50
2022-09-06T20:06:43.216Z,18.30
2022-09-06T20:09:11.789Z,18.10
2022-09-06T20:11:42.227Z,17.90
2022-09-06T20:14:11.890Z,17.80
2022-09-06T20:16:41.852Z,17.70
2022-09-06T20:19:12.357Z,17.80
2022-09-06T20:21:39.514Z,17.80
2022-09-06T20:24:06.809Z,17.70
2022-09-06T20:26:34.221Z,17.70
2022-09-06T20:29:04.906Z,17.70
2022-09-06T20:31:35.183Z,17.70
2022-09-06T20:34:05.584Z,17.70
2022-09-06T20:36:33.169Z,17.60
2022-09-06T20:39:00.656Z,17.60
2022-09-06T20:41:28.892Z,17.50
2022-09-06T20:43:59.389Z,17.50
2022-09-06T20:46:35.295Z,17.50
2022-09-06T20:49:05.007Z,17.50
2022-09-06T20:51:35.902Z,17.50
2022-09-06T20:54:05.667Z,17.40
2022-09-06T20:56:38.901Z,17.20
2022-09-06T20:59:11.037Z,17.10
2022-09-06T21:01:44.090Z,17.00
2022-09-06T21:04:15.109Z,17.10
2022-09-06T21:06:43.426Z,17.20
2022-09-06T21:09:14.901Z,17.10
2022-09-06T21:11:43.293Z,17.10
2022-09-06T21:14:11.476Z,17.10
2022-09-06T21:16:40.828Z,17.10
2022-09-06T21:19:11.200Z,17.10
2022-09-06T21:21:40.066Z,17.10
2022-09-06T21:24:10.517Z,17.00
2022-09-06T21:26:38.353Z,16.90
2022-09-06T21:29:05.897Z,16.70
2022-09-06T21:31:36.595Z,16.60
2022-09-06T21:34:16.362Z,16.50
2022-09-06T21:36:45.232Z,16.40
2022-09-06T21:39:13.345Z,16.40
2022-09-06T21:41:43.110Z,16.30
2022-09-06T21:44:12.243Z,16.20
2022-09-06T21:46:40.540Z,16.20
2022-09-06T21:49:13.031Z,16.20
2022-09-06T21:51:42.127Z,16.20
2022-09-06T21:54:10.224Z,16.20
2022-09-06T21:56:39.594Z,16.20
2022-09-06T21:59:08.330Z,16.20
2022-09-06T22:01:38.803Z,16.20
2022-09-06T22:04:07.615Z,16.20
2022-09-06T22:06:36.730Z,16.20
2022-09-06T22:09:11.259Z,16.10
2022-09-06T22:11:42.512Z,16.10
2022-09-06T22:14:14.089Z,16.00
2022-09-06T22:16:42.391Z,15.90
2022-09-06T22:19:11.124Z,15.80
2022-09-06T22:21:38.978Z,15.80
2022-09-06T22:24:12.064Z,15.80
2022-09-06T22:26:41.647Z,15.80
2022-09-06T22:29:13.307Z,15.90
2022-09-06T22:31:41.082Z,15.80
2022-09-06T22:34:09.547Z,15.90
2022-09-06T22:36:37.663Z,15.90
2022-09-06T22:39:05.280Z,15.90
2022-09-06T22:41:34.285Z,15.90
2022-09-06T22:44:03.495Z,16.00
2022-09-06T22:46:32.267Z,16.00
2022-09-06T22:49:00.431Z,15.90
2022-09-06T22:51:27.452Z,15.90
2022-09-06T22:53:54.694Z,15.80
2022-09-06T22:56:22.106Z,15.80
2022-09-06T22:58:49.016Z,15.80
2022-09-06T23:01:17.401Z,15.70
2022-09-06T23:03:44.977Z,15.70
2022-09-06T23:06:12.003Z,15.70
2022-09-06T23:08:41.424Z,15.70
2022-09-06T23:11:18.702Z,15.60
2022-09-06T23:13:47.032Z,15.60
2022-09-06T23:16:19.766Z,15.60
2022-09-06T23:18:48.509Z,15.60
2022-09-06T23:21:21.837Z,15.60
2022-09-06T23:23:52.028Z,15.60
2022-09-06T23:26:28.633Z,15.60
2022-09-06T23:28:56.615Z,15.60
2022-09-06T23:31:31.471Z,15.60
2022-09-06T23:34:02.539Z,15.60
2022-09-06T23:36:31.062Z,15.60
2022-09-06T23:38:58.288Z,15.50
2022-09-06T23:41:25.495Z,15.50
2022-09-06T23:43:52.529Z,15.50
2022-09-06T23:46:19.916Z,15.50
2022-09-06T23:48:47.206Z,15.50
2022-09-06T23:51:14.516Z,15.40
2022-09-06T23:53:41.687Z,15.30
2022-09-06T23:56:09.324Z,15.20
2022-09-06T23:58:38.513Z,15.20
